sensor_id;sensor_type;location;lat;lon;timestamp;P1;durP1;ratioP1;P2;durP2;ratioP2
74168;SDS011;62523;53.336;83.690;2023-02-17T00:03:08;206.82;;;95.68;;
74168;SDS011;62523;53.336;83.690;2023-02-17T00:08:09;150.37;;;59.37;;
74168;SDS011;62523;53.336;83.690;2023-02-17T00:13:11;140.10;;;51.37;;
74168;SDS011;62523;53.336;83.690;2023-02-17T00:18:12;129.45;;;51.45;;
74168;SDS011;62523;53.336;83.690;2023-02-17T00:23:13;115.38;;;53.50;;
74168;SDS011;62523;53.336;83.690;2023-02-17T00:28:14;127.30;;;53.47;;
74168;SDS011;62523;53.336;83.690;2023-02-17T00:33:15;137.07;;;54.85;;
74168;SDS011;62523;53.336;83.690;2023-02-17T00:38:16;146.38;;;54.03;;
74168;SDS011;62523;53.336;83.690;2023-02-17T00:43:17;64.18;;;28.98;;
74168;SDS011;62523;53.336;83.690;2023-02-17T00:48:18;238.88;;;80.82;;
74168;SDS011;62523;53.336;83.690;2023-02-17T00:53:20;172.80;;;59.57;;
74168;SDS011;62523;53.336;83.690;2023-02-17T00:58:21;125.63;;;43.13;;
74168;SDS011;62523;53.336;83.690;2023-02-17T01:03:22;109.63;;;42.47;;
74168;SDS011;62523;53.336;83.690;2023-02-17T01:08:24;189.07;;;64.60;;
74168;SDS011;62523;53.336;83.690;2023-02-17T01:13:25;200.90;;;74.00;;
74168;SDS011;62523;53.336;83.690;2023-02-17T01:18:26;205.32;;;73.68;;
74168;SDS011;62523;53.336;83.690;2023-02-17T01:23:27;236.05;;;87.43;;
74168;SDS011;62523;53.336;83.690;2023-02-17T01:28:28;229.43;;;80.80;;
74168;SDS011;62523;53.336;83.690;2023-02-17T01:33:30;263.05;;;100.93;;
74168;SDS011;62523;53.336;83.690;2023-02-17T01:38:32;267.52;;;97.68;;
74168;SDS011;62523;53.336;83.690;2023-02-17T01:43:35;317.38;;;115.47;;
74168;SDS011;62523;53.336;83.690;2023-02-17T01:53:42;390.67;;;153.68;;
74168;SDS011;62523;53.336;83.690;2023-02-17T01:59:07;120.82;;;44.25;;
74168;SDS011;62523;53.336;83.690;2023-02-17T02:04:12;138.70;;;52.10;;
74168;SDS011;62523;53.336;83.690;2023-02-17T02:09:18;119.30;;;46.97;;
74168;SDS011;62523;53.336;83.690;2023-02-17T02:14:22;128.07;;;43.42;;
74168;SDS011;62523;53.336;83.690;2023-02-17T02:24:41;221.40;;;82.22;;
74168;SDS011;62523;53.336;83.690;2023-02-17T02:35:24;342.83;;;126.35;;
74168;SDS011;62523;53.336;83.690;2023-02-17T02:40:38;434.13;;;150.90;;
74168;SDS011;62523;53.336;83.690;2023-02-17T02:45:44;544.63;;;212.75;;
74168;SDS011;62523;53.336;83.690;2023-02-17T03:01:27;492.92;;;206.50;;
74168;SDS011;62523;53.336;83.690;2023-02-17T03:06:45;443.60;;;170.45;;
74168;SDS011;62523;53.336;83.690;2023-02-17T03:12:08;304.17;;;126.60;;
74168;SDS011;62523;53.336;83.690;2023-02-17T03:17:09;222.32;;;92.63;;
74168;SDS011;62523;53.336;83.690;2023-02-17T03:22:14;211.17;;;90.40;;
74168;SDS011;62523;53.336;83.690;2023-02-17T03:27:21;202.88;;;77.28;;
74168;SDS011;62523;53.336;83.690;2023-02-17T03:32:22;191.77;;;80.60;;
74168;SDS011;62523;53.336;83.690;2023-02-17T03:37:23;223.57;;;92.22;;
74168;SDS011;62523;53.336;83.690;2023-02-17T03:42:24;217.18;;;89.20;;
74168;SDS011;62523;53.336;83.690;2023-02-17T03:47:26;190.40;;;80.43;;
74168;SDS011;62523;53.336;83.690;2023-02-17T03:52:27;149.60;;;57.40;;
74168;SDS011;62523;53.336;83.690;2023-02-17T03:57:28;118.60;;;49.55;;
74168;SDS011;62523;53.336;83.690;2023-02-17T04:02:31;93.85;;;39.90;;
74168;SDS011;62523;53.336;83.690;2023-02-17T04:07:32;76.43;;;33.93;;
74168;SDS011;62523;53.336;83.690;2023-02-17T04:12:33;98.47;;;47.85;;
74168;SDS011;62523;53.336;83.690;2023-02-17T04:17:37;108.25;;;45.20;;
74168;SDS011;62523;53.336;83.690;2023-02-17T04:22:39;83.50;;;34.28;;
74168;SDS011;62523;53.336;83.690;2023-02-17T04:27:40;84.45;;;36.35;;
74168;SDS011;62523;53.336;83.690;2023-02-17T04:32:41;96.32;;;38.85;;
74168;SDS011;62523;53.336;83.690;2023-02-17T04:37:42;107.72;;;42.53;;
74168;SDS011;62523;53.336;83.690;2023-02-17T04:42:43;145.02;;;44.83;;
74168;SDS011;62523;53.336;83.690;2023-02-17T04:47:45;126.33;;;51.00;;
74168;SDS011;62523;53.336;83.690;2023-02-17T04:52:46;124.68;;;46.30;;
74168;SDS011;62523;53.336;83.690;2023-02-17T04:57:50;117.75;;;42.75;;
74168;SDS011;62523;53.336;83.690;2023-02-17T05:02:51;123.00;;;52.30;;
74168;SDS011;62523;53.336;83.690;2023-02-17T05:07:52;110.07;;;44.73;;
74168;SDS011;62523;53.336;83.690;2023-02-17T05:12:53;135.75;;;52.90;;
74168;SDS011;62523;53.336;83.690;2023-02-17T05:17:55;109.72;;;44.85;;
74168;SDS011;62523;53.336;83.690;2023-02-17T05:22:56;105.70;;;42.92;;
74168;SDS011;62523;53.336;83.690;2023-02-17T05:27:57;101.30;;;40.00;;
74168;SDS011;62523;53.336;83.690;2023-02-17T05:32:58;88.57;;;34.00;;
74168;SDS011;62523;53.336;83.690;2023-02-17T05:38:00;82.00;;;36.40;;
74168;SDS011;62523;53.336;83.690;2023-02-17T05:48:03;106.28;;;41.30;;
74168;SDS011;62523;53.336;83.690;2023-02-17T05:53:04;108.00;;;47.03;;
74168;SDS011;62523;53.336;83.690;2023-02-17T05:58:05;127.22;;;49.33;;
74168;SDS011;62523;53.336;83.690;2023-02-17T06:03:07;169.77;;;68.97;;
74168;SDS011;62523;53.336;83.690;2023-02-17T06:08:08;177.20;;;73.15;;
74168;SDS011;62523;53.336;83.690;2023-02-17T06:13:09;195.48;;;88.03;;
74168;SDS011;62523;53.336;83.690;2023-02-17T06:18:10;193.50;;;82.35;;
74168;SDS011;62523;53.336;83.690;2023-02-17T06:23:11;166.00;;;61.77;;
74168;SDS011;62523;53.336;83.690;2023-02-17T06:28:12;120.93;;;49.10;;
74168;SDS011;62523;53.336;83.690;2023-02-17T06:33:13;98.30;;;41.30;;
74168;SDS011;62523;53.336;83.690;2023-02-17T06:38:15;91.13;;;36.90;;
74168;SDS011;62523;53.336;83.690;2023-02-17T06:43:16;116.35;;;46.83;;
74168;SDS011;62523;53.336;83.690;2023-02-17T06:48:19;114.05;;;45.08;;
74168;SDS011;62523;53.336;83.690;2023-02-17T06:53:20;129.95;;;50.85;;
74168;SDS011;62523;53.336;83.690;2023-02-17T06:58:21;129.65;;;52.28;;
74168;SDS011;62523;53.336;83.690;2023-02-17T07:03:22;114.85;;;44.10;;
74168;SDS011;62523;53.336;83.690;2023-02-17T07:08:23;127.00;;;51.47;;
74168;SDS011;62523;53.336;83.690;2023-02-17T07:13:24;105.67;;;42.37;;
74168;SDS011;62523;53.336;83.690;2023-02-17T07:18:25;94.15;;;40.10;;
74168;SDS011;62523;53.336;83.690;2023-02-17T07:23:27;83.60;;;38.67;;
74168;SDS011;62523;53.336;83.690;2023-02-17T07:28:28;99.80;;;32.55;;
74168;SDS011;62523;53.336;83.690;2023-02-17T07:33:29;94.90;;;34.10;;
74168;SDS011;62523;53.336;83.690;2023-02-17T07:38:30;88.47;;;40.47;;
74168;SDS011;62523;53.336;83.690;2023-02-17T07:43:31;85.95;;;33.75;;
74168;SDS011;62523;53.336;83.690;2023-02-17T07:48:33;87.33;;;30.83;;
74168;SDS011;62523;53.336;83.690;2023-02-17T07:53:34;73.30;;;29.57;;
74168;SDS011;62523;53.336;83.690;2023-02-17T07:58:37;78.32;;;29.33;;
74168;SDS011;62523;53.336;83.690;2023-02-17T08:03:39;67.07;;;27.40;;
74168;SDS011;62523;53.336;83.690;2023-02-17T08:08:41;63.37;;;27.40;;
74168;SDS011;62523;53.336;83.690;2023-02-17T08:14:01;54.15;;;23.30;;
74168;SDS011;62523;53.336;83.690;2023-02-17T08:19:02;63.10;;;23.73;;
74168;SDS011;62523;53.336;83.690;2023-02-17T08:24:03;65.07;;;25.83;;
74168;SDS011;62523;53.336;83.690;2023-02-17T08:29:04;49.40;;;22.67;;
74168;SDS011;62523;53.336;83.690;2023-02-17T08:34:06;57.05;;;23.63;;
74168;SDS011;62523;53.336;83.690;2023-02-17T08:39:11;49.85;;;24.02;;
74168;SDS011;62523;53.336;83.690;2023-02-17T08:44:15;33.92;;;17.45;;
74168;SDS011;62523;53.336;83.690;2023-02-17T08:49:20;48.65;;;20.73;;
74168;SDS011;62523;53.336;83.690;2023-02-17T08:54:25;46.10;;;15.63;;
74168;SDS011;62523;53.336;83.690;2023-02-17T08:59:26;18.75;;;9.35;;
74168;SDS011;62523;53.336;83.690;2023-02-17T09:04:27;35.92;;;14.95;;
74168;SDS011;62523;53.336;83.690;2023-02-17T09:09:28;41.00;;;16.53;;
74168;SDS011;62523;53.336;83.690;2023-02-17T09:14:31;37.17;;;15.77;;
74168;SDS011;62523;53.336;83.690;2023-02-17T09:19:32;47.37;;;17.87;;
74168;SDS011;62523;53.336;83.690;2023-02-17T09:24:33;39.65;;;15.93;;
74168;SDS011;62523;53.336;83.690;2023-02-17T09:29:37;37.30;;;15.27;;
74168;SDS011;62523;53.336;83.690;2023-02-17T09:34:39;32.37;;;12.77;;
74168;SDS011;62523;53.336;83.690;2023-02-17T09:39:41;41.40;;;15.60;;
74168;SDS011;62523;53.336;83.690;2023-02-17T09:44:43;44.58;;;17.80;;
74168;SDS011;62523;53.336;83.690;2023-02-17T09:49:49;39.17;;;18.90;;
74168;SDS011;62523;53.336;83.690;2023-02-17T09:55:14;39.13;;;14.40;;
74168;SDS011;62523;53.336;83.690;2023-02-17T10:00:31;22.27;;;12.85;;
74168;SDS011;62523;53.336;83.690;2023-02-17T10:11:18;18.48;;;8.63;;
74168;SDS011;62523;53.336;83.690;2023-02-17T10:16:29;18.40;;;8.55;;
74168;SDS011;62523;53.336;83.690;2023-02-17T10:21:39;22.42;;;8.90;;
74168;SDS011;62523;53.336;83.690;2023-02-17T10:42:28;41.05;;;17.02;;
74168;SDS011;62523;53.336;83.690;2023-02-17T10:47:37;36.55;;;15.10;;
74168;SDS011;62523;53.336;83.690;2023-02-17T10:52:39;50.78;;;18.40;;
74168;SDS011;62523;53.336;83.690;2023-02-17T10:57:41;39.10;;;15.65;;
74168;SDS011;62523;53.336;83.690;2023-02-17T11:02:47;42.95;;;17.00;;
74168;SDS011;62523;53.336;83.690;2023-02-17T11:08:05;39.88;;;18.38;;
74168;SDS011;62523;53.336;83.690;2023-02-17T11:13:36;48.33;;;20.23;;
74168;SDS011;62523;53.336;83.690;2023-02-17T11:18:43;45.67;;;19.00;;
74168;SDS011;62523;53.336;83.690;2023-02-17T11:23:50;40.08;;;17.23;;
74168;SDS011;62523;53.336;83.690;2023-02-17T11:34:30;43.38;;;18.42;;
74168;SDS011;62523;53.336;83.690;2023-02-17T11:39:38;42.80;;;17.38;;
74168;SDS011;62523;53.336;83.690;2023-02-17T11:44:47;46.80;;;20.65;;
74168;SDS011;62523;53.336;83.690;2023-02-17T11:55:05;58.88;;;24.35;;
74168;SDS011;62523;53.336;83.690;2023-02-17T12:16:27;67.28;;;29.58;;
74168;SDS011;62523;53.336;83.690;2023-02-17T12:26:46;78.05;;;32.38;;
74168;SDS011;62523;53.336;83.690;2023-02-17T12:37:05;83.60;;;33.90;;
74168;SDS011;62523;53.336;83.690;2023-02-17T12:42:18;84.28;;;35.78;;
74168;SDS011;62523;53.336;83.690;2023-02-17T12:47:31;91.97;;;35.25;;
74168;SDS011;62523;53.336;83.690;2023-02-17T12:52:39;84.32;;;36.78;;
74168;SDS011;62523;53.336;83.690;2023-02-17T12:58:19;91.95;;;35.75;;
74168;SDS011;62523;53.336;83.690;2023-02-17T13:03:23;85.03;;;34.88;;
74168;SDS011;62523;53.336;83.690;2023-02-17T13:14:11;80.95;;;29.60;;
74168;SDS011;62523;53.336;83.690;2023-02-17T13:19:27;64.20;;;30.95;;
74168;SDS011;62523;53.336;83.690;2023-02-17T13:24:50;82.40;;;30.75;;
74168;SDS011;62523;53.336;83.690;2023-02-17T13:30:02;74.78;;;31.67;;
74168;SDS011;62523;53.336;83.690;2023-02-17T13:35:51;79.18;;;31.95;;
74168;SDS011;62523;53.336;83.690;2023-02-17T13:40:34;81.78;;;30.55;;
74168;SDS011;62523;53.336;83.690;2023-02-17T13:50:48;74.70;;;31.52;;
74168;SDS011;62523;53.336;83.690;2023-02-17T13:55:52;90.28;;;32.80;;
74168;SDS011;62523;53.336;83.690;2023-02-17T14:00:54;85.32;;;32.88;;
74168;SDS011;62523;53.336;83.690;2023-02-17T14:05:58;78.90;;;30.77;;
74168;SDS011;62523;53.336;83.690;2023-02-17T14:11:05;85.80;;;30.58;;
74168;SDS011;62523;53.336;83.690;2023-02-17T14:21:29;77.60;;;27.35;;
74168;SDS011;62523;53.336;83.690;2023-02-17T14:31:42;90.15;;;34.72;;
74168;SDS011;62523;53.336;83.690;2023-02-17T14:36:45;113.20;;;36.30;;
74168;SDS011;62523;53.336;83.690;2023-02-17T14:41:47;77.47;;;28.87;;
74168;SDS011;62523;53.336;83.690;2023-02-17T14:46:48;91.75;;;34.90;;
74168;SDS011;62523;53.336;83.690;2023-02-17T14:51:49;102.50;;;37.47;;
74168;SDS011;62523;53.336;83.690;2023-02-17T14:57:04;87.60;;;37.58;;
74168;SDS011;62523;53.336;83.690;2023-02-17T15:02:17;85.07;;;33.25;;
74168;SDS011;62523;53.336;83.690;2023-02-17T15:07:20;76.63;;;30.55;;
74168;SDS011;62523;53.336;83.690;2023-02-17T15:12:24;90.50;;;32.75;;
74168;SDS011;62523;53.336;83.690;2023-02-17T15:17:25;81.72;;;33.47;;
74168;SDS011;62523;53.336;83.690;2023-02-17T15:22:26;92.55;;;39.50;;
74168;SDS011;62523;53.336;83.690;2023-02-17T15:27:27;113.10;;;49.33;;
74168;SDS011;62523;53.336;83.690;2023-02-17T15:32:28;124.60;;;53.78;;
74168;SDS011;62523;53.336;83.690;2023-02-17T15:37:29;100.60;;;43.90;;
74168;SDS011;62523;53.336;83.690;2023-02-17T15:42:31;105.13;;;42.17;;
74168;SDS011;62523;53.336;83.690;2023-02-17T15:47:32;86.55;;;34.60;;
74168;SDS011;62523;53.336;83.690;2023-02-17T15:52:36;83.60;;;33.35;;
74168;SDS011;62523;53.336;83.690;2023-02-17T15:57:38;72.80;;;32.58;;
74168;SDS011;62523;53.336;83.690;2023-02-17T16:02:43;76.30;;;33.20;;
74168;SDS011;62523;53.336;83.690;2023-02-17T16:07:45;83.55;;;37.75;;
74168;SDS011;62523;53.336;83.690;2023-02-17T16:12:49;99.25;;;37.97;;
74168;SDS011;62523;53.336;83.690;2023-02-17T16:17:51;96.38;;;35.05;;
74168;SDS011;62523;53.336;83.690;2023-02-17T16:22:54;80.57;;;31.55;;
74168;SDS011;62523;53.336;83.690;2023-02-17T16:27:56;65.88;;;28.70;;
74168;SDS011;62523;53.336;83.690;2023-02-17T16:32:57;74.97;;;26.20;;
74168;SDS011;62523;53.336;83.690;2023-02-17T16:38:00;56.50;;;21.95;;
74168;SDS011;62523;53.336;83.690;2023-02-17T16:43:05;63.55;;;24.42;;
74168;SDS011;62523;53.336;83.690;2023-02-17T16:48:06;67.43;;;25.13;;
74168;SDS011;62523;53.336;83.690;2023-02-17T16:53:09;75.07;;;28.55;;
74168;SDS011;62523;53.336;83.690;2023-02-17T17:03:18;67.28;;;26.40;;
74168;SDS011;62523;53.336;83.690;2023-02-17T17:08:21;61.40;;;27.13;;
74168;SDS011;62523;53.336;83.690;2023-02-17T17:13:22;73.10;;;25.77;;
74168;SDS011;62523;53.336;83.690;2023-02-17T17:18:23;65.78;;;24.55;;
74168;SDS011;62523;53.336;83.690;2023-02-17T17:23:26;64.18;;;23.17;;
74168;SDS011;62523;53.336;83.690;2023-02-17T17:28:27;70.47;;;24.40;;
74168;SDS011;62523;53.336;83.690;2023-02-17T17:33:28;51.03;;;23.63;;
74168;SDS011;62523;53.336;83.690;2023-02-17T17:38:29;56.97;;;24.40;;
74168;SDS011;62523;53.336;83.690;2023-02-17T17:43:30;56.03;;;23.23;;
74168;SDS011;62523;53.336;83.690;2023-02-17T17:48:31;56.85;;;21.77;;
74168;SDS011;62523;53.336;83.690;2023-02-17T17:53:32;66.50;;;26.75;;
74168;SDS011;62523;53.336;83.690;2023-02-17T17:58:34;42.57;;;20.37;;
74168;SDS011;62523;53.336;83.690;2023-02-17T18:03:39;57.65;;;21.20;;
74168;SDS011;62523;53.336;83.690;2023-02-17T18:08:41;43.40;;;18.83;;
74168;SDS011;62523;53.336;83.690;2023-02-17T18:13:44;57.78;;;19.83;;
74168;SDS011;62523;53.336;83.690;2023-02-17T18:18:47;47.70;;;20.80;;
74168;SDS011;62523;53.336;83.690;2023-02-17T18:23:49;63.58;;;22.30;;
74168;SDS011;62523;53.336;83.690;2023-02-17T18:28:50;60.28;;;23.63;;
74168;SDS011;62523;53.336;83.690;2023-02-17T18:33:52;65.13;;;23.77;;
74168;SDS011;62523;53.336;83.690;2023-02-17T18:38:53;59.73;;;24.00;;
74168;SDS011;62523;53.336;83.690;2023-02-17T18:43:56;54.15;;;21.38;;
74168;SDS011;62523;53.336;83.690;2023-02-17T18:48:58;45.88;;;17.65;;
74168;SDS011;62523;53.336;83.690;2023-02-17T18:54:00;56.17;;;22.60;;
74168;SDS011;62523;53.336;83.690;2023-02-17T18:59:02;51.53;;;22.98;;
74168;SDS011;62523;53.336;83.690;2023-02-17T19:04:04;57.88;;;20.50;;
74168;SDS011;62523;53.336;83.690;2023-02-17T19:09:05;57.00;;;19.45;;
74168;SDS011;62523;53.336;83.690;2023-02-17T19:14:06;46.05;;;18.52;;
74168;SDS011;62523;53.336;83.690;2023-02-17T19:19:07;43.47;;;16.13;;
74168;SDS011;62523;53.336;83.690;2023-02-17T19:24:08;42.35;;;16.83;;
74168;SDS011;62523;53.336;83.690;2023-02-17T19:29:10;44.13;;;16.30;;
74168;SDS011;62523;53.336;83.690;2023-02-17T19:34:11;37.50;;;15.90;;
74168;SDS011;62523;53.336;83.690;2023-02-17T19:39:13;36.05;;;17.42;;
74168;SDS011;62523;53.336;83.690;2023-02-17T19:44:14;47.50;;;16.25;;
74168;SDS011;62523;53.336;83.690;2023-02-17T19:49:15;46.07;;;16.93;;
74168;SDS011;62523;53.336;83.690;2023-02-17T19:54:16;47.88;;;19.70;;
74168;SDS011;62523;53.336;83.690;2023-02-17T19:59:17;78.53;;;28.00;;
74168;SDS011;62523;53.336;83.690;2023-02-17T20:04:19;68.40;;;28.00;;
74168;SDS011;62523;53.336;83.690;2023-02-17T20:09:20;55.67;;;24.95;;
74168;SDS011;62523;53.336;83.690;2023-02-17T20:14:22;48.17;;;20.70;;
74168;SDS011;62523;53.336;83.690;2023-02-17T20:19:23;40.58;;;16.25;;
74168;SDS011;62523;53.336;83.690;2023-02-17T20:24:25;25.08;;;12.05;;
74168;SDS011;62523;53.336;83.690;2023-02-17T20:29:26;28.50;;;10.23;;
74168;SDS011;62523;53.336;83.690;2023-02-17T20:34:29;25.48;;;12.43;;
74168;SDS011;62523;53.336;83.690;2023-02-17T20:39:32;45.00;;;17.00;;
74168;SDS011;62523;53.336;83.690;2023-02-17T20:44:34;35.80;;;13.77;;
74168;SDS011;62523;53.336;83.690;2023-02-17T20:49:36;25.00;;;12.40;;
74168;SDS011;62523;53.336;83.690;2023-02-17T20:54:37;33.05;;;14.77;;
74168;SDS011;62523;53.336;83.690;2023-02-17T20:59:38;42.58;;;15.45;;
74168;SDS011;62523;53.336;83.690;2023-02-17T21:04:40;34.10;;;13.43;;
74168;SDS011;62523;53.336;83.690;2023-02-17T21:09:43;32.85;;;12.48;;
74168;SDS011;62523;53.336;83.690;2023-02-17T21:14:44;33.20;;;11.82;;
74168;SDS011;62523;53.336;83.690;2023-02-17T21:19:45;37.90;;;13.18;;
74168;SDS011;62523;53.336;83.690;2023-02-17T21:24:46;42.42;;;16.48;;
74168;SDS011;62523;53.336;83.690;2023-02-17T21:29:47;49.83;;;15.55;;
74168;SDS011;62523;53.336;83.690;2023-02-17T21:34:48;54.83;;;21.10;;
74168;SDS011;62523;53.336;83.690;2023-02-17T21:39:50;52.50;;;20.92;;
74168;SDS011;62523;53.336;83.690;2023-02-17T21:44:51;52.53;;;22.73;;
74168;SDS011;62523;53.336;83.690;2023-02-17T21:49:52;46.40;;;18.05;;
74168;SDS011;62523;53.336;83.690;2023-02-17T21:54:54;48.90;;;18.40;;
74168;SDS011;62523;53.336;83.690;2023-02-17T21:59:55;33.33;;;13.98;;
74168;SDS011;62523;53.336;83.690;2023-02-17T22:04:56;35.00;;;14.15;;
74168;SDS011;62523;53.336;83.690;2023-02-17T22:09:58;31.38;;;13.63;;
74168;SDS011;62523;53.336;83.690;2023-02-17T22:14:59;38.55;;;15.85;;
74168;SDS011;62523;53.336;83.690;2023-02-17T22:20:03;40.88;;;17.63;;
74168;SDS011;62523;53.336;83.690;2023-02-17T22:25:05;32.97;;;14.77;;
74168;SDS011;62523;53.336;83.690;2023-02-17T22:30:08;40.00;;;15.02;;
74168;SDS011;62523;53.336;83.690;2023-02-17T22:35:10;35.70;;;14.70;;
74168;SDS011;62523;53.336;83.690;2023-02-17T22:40:11;30.00;;;13.23;;
74168;SDS011;62523;53.336;83.690;2023-02-17T22:45:13;31.35;;;16.17;;
74168;SDS011;62523;53.336;83.690;2023-02-17T22:50:15;41.13;;;14.70;;
74168;SDS011;62523;53.336;83.690;2023-02-17T22:55:16;27.30;;;13.93;;
74168;SDS011;62523;53.336;83.690;2023-02-17T23:00:17;32.30;;;13.27;;
74168;SDS011;62523;53.336;83.690;2023-02-17T23:05:18;32.10;;;15.57;;
74168;SDS011;62523;53.336;83.690;2023-02-17T23:10:19;30.40;;;13.18;;
74168;SDS011;62523;53.336;83.690;2023-02-17T23:15:20;36.63;;;12.77;;
74168;SDS011;62523;53.336;83.690;2023-02-17T23:20:39;27.23;;;13.65;;
74168;SDS011;62523;53.336;83.690;2023-02-17T23:25:44;37.00;;;14.82;;
74168;SDS011;62523;53.336;83.690;2023-02-17T23:30:49;39.15;;;16.08;;
74168;SDS011;62523;53.336;83.690;2023-02-17T23:35:50;35.40;;;16.57;;
74168;SDS011;62523;53.336;83.690;2023-02-17T23:40:51;45.40;;;17.77;;
74168;SDS011;62523;53.336;83.690;2023-02-17T23:45:56;29.05;;;13.55;;
74168;SDS011;62523;53.336;83.690;2023-02-17T23:50:58;29.75;;;14.88;;
74168;SDS011;62523;53.336;83.690;2023-02-17T23:56:10;32.55;;;15.93;;
